Terminal Aerodrome Forecast
Issued by NWS

Home | Current Version | Previous Version | Text Only | Print | Product List | Glossary On
Versions: 1 2 3 4 5 6 7 8 9 10 11 12 13 14 15 16 17 18
000
FTUS45 KRIW 261136
TAFPNA
TAF
KPNA 261136Z 2612/2712 30006KT P6SM VCFG FEW005 SCT070
     FM261500 VRB05KT P6SM VCSH SCT060
     FM261800 28008KT P6SM VCTS SCT035CB BKN050
     FM270200 31006KT P6SM VCSH SCT030 BKN040
      AMD LTD TO CLD VIS AND WIND=

USA.gov is the U.S. government's official web portal to all federal, state and local government web resources and services.